Waldorf, Maryland
Current Conditions -  °F | °C
As of 12:58 AM on Wednesday 28 Jan 2015 (Local Time) from KADW Reporting Station
Clear Clear  
Wind Chill: 14°   Ceiling: Unl
Heat Index: 26°   Visibility: 10mi
Dew Point: 14°   Wind: 15mph
Humidity: 62%   Direction: 320°NW
Pressure: 29.98"   Gusts: NA
Location:  38.62°N, 76.9°W
Report Text: KADW 280558Z 32013KT 10SM CLR M03/M10 A2998 RMK AO2A SLP162 T10341098 11008 21034 52024 $
Loading
Personal Weather Stations






























Interactive Weather Map New forecast layout! Learn more

10-Day Weather Forecast

Advertisements
Track Severe Weather on mobile